Potomac, IL (61865)

2:00 AM CST on February 10, 2016 (GMT -0600)
Pilot Twp | | Change Station
CLOSE
Current Station
Personal Weather Station
Location: Potomac, IL
Elevation: 738 ft
Nearby Weather Stations

Elev 738 ft 40.26 °N, 87.88 °W | Updated 14 minutes ago

Mostly Cloudy
Mostly Cloudy
11.3 °F
Feels Like -3 °F
N
12.0
Wind Variable Wind from WNW
Gusts 19.0 mph

Today
High -- | Low -- °F
--% Chance of Precip.
Yesterday
High -- | Low -- °F
Precip. -- in
Pressure 29.97 in
Visibility 10.0 miles
Clouds Overcast 7500 ft
Windchill -3 °F
Dew Point 6 °F
Humidity 78%
Rainfall 0.00 in
Snow Depth Not available.
6:51 AM 5:20 PM
Waxing Crescent, 4% visible
METAR KDNV 100755Z AUTO 29011KT 10SM OVC075 M11/M15 A2997 RMK AO2 T11101149
Pressure 29.97 in
Visibility 10.0 miles
Clouds Overcast 7500 ft
Windchill -3 °F
Dew Point 6 °F
Humidity 78%
Rainfall 0.00 in
Snow Depth Not available.
6:51 AM 5:20 PM
Waxing Crescent, 4% visible
METAR KDNV 100755Z AUTO 29011KT 10SM OVC075 M11/M15 A2997 RMK AO2 T11101149

10-Day Weather Forecast

Almanac

Astronomy

Feb. 10, 2016 Rise Set
Actual Time
Civil Twilight
Nautical Twilight
Astronomical Twilight
Moon
Length of Visible Light
Length of Day
Tomorrow will be .
, % of the Moon is Illuminated

Today's Extremes

State Highs State Lows

Community

WunderPhotos

Upload Photos

1,891,826 photos uploaded!

WunderBlog® & News

Nearby

Air Quality

  Air Quality AQ Index Pollutant
Not available.

Snow Depth

Station Depth Elevation

Earthquake Activity

City Distance Mag. Time & Date
Minimum magnitude displayed is 2.5.

Coastal Water Temperatures

Place Temperature

Stations

Nearby Weather Stations

Station Location Temp. Windchill Dew Point Humidity Wind Precip. Elev Updated Type
                   

Watches & Warnings

There are currently no watches in effect.